Maya — WDJ5755 — position and weather

sailwx.info

Track history (hours):
 
Tides and Currents Weather Stations Pressure Air Temp Water Temp Dewpoint Dewpoint Depression Visibility Wind Speed Wind Dir Waves Ship Positions

Maya

Owner: COCOBAY PROPERTIES LTD, FORT LAUDERDALE, FL. More information available from US FCC via Universal Licensing System and Coast Guard Vessel Documentation Center.

Last reported at 2017-Aug-16 23:08 UTC. Time now 2017-Sep-20 23:55 UTC.
Position N 37°25' E 025°19'.
Warning: this ship's position is 35 days out of date.

Length 10 m.

Type: Pleasure craft. MMSI: 367790970.

Date/timePositionNaut miles runAvg speedWind from/ knotsBaromVisibWave heightAir tempDewpointWater temp
2017-Aug-16 23:08N 37°25' E 025°19'0 1.5
2017-Aug-16 22:59N 37°25' E 025°19'0 0.0
2017-Aug-16 18:19N 37°25' E 025°19'0 1.1
2017-Aug-16 18:00N 37°25' E 025°19'0 0.1
2017-Aug-16 17:29N 37°25' E 025°19'0 0.1
2017-Aug-16 16:59N 37°25' E 025°19'0 0.0
2017-Aug-16 15:09N 37°25' E 025°19'0 0.0
2017-Aug-16 12:21N 37°25' E 025°19'0 0.0
2017-Aug-16 11:33N 37°25' E 025°19'1 6.5
2017-Aug-16 11:28N 37°25' E 025°19'1 0.2
2017-Aug-16 08:55N 37°25' E 025°19'0 0.0
2017-Aug-16 08:30N 37°25' E 025°19'0 0.0
2017-Aug-16 07:50N 37°25' E 025°19'0 0.5
2017-Aug-16 07:30N 37°25' E 025°19'0 0.3
2017-Aug-16 06:59N 37°24' E 025°19'0 0.1
2017-Aug-16 06:30N 37°25' E 025°19'0 0.5
2017-Aug-16 06:00N 37°24' E 025°19'0 0.0
2017-Aug-15 20:22N 37°25' E 025°20'3 2.6
2017-Aug-15 19:21N 37°27' E 025°19'1 0.5
2017-Aug-15 18:12N 37°27' E 025°20'0 0.1
2017-Aug-15 17:06N 37°27' E 025°19'110.6
2017-Aug-15 17:00N 37°27' E 025°18'5 9.3
2017-Aug-15 16:30N 37°22' E 025°17'1 1.1
2017-Aug-15 15:19N 37°23' E 025°16'1 1.6
2017-Aug-15 15:00N 37°24' E 025°16'1 0.8
2017-Aug-15 14:23N 37°23' E 025°16'0 0.0
2017-Aug-15 12:06N 37°23' E 025°16'1 1.9
2017-Aug-15 11:49N 37°24' E 025°16'1 1.4
2017-Aug-15 11:26N 37°23' E 025°16'0 0.1
2017-Aug-15 11:00N 37°23' E 025°16'5 0.2
2017-Aug-14 08:40N 37°27' E 025°20'0 0.0
2017-Aug-14 08:28N 37°27' E 025°20'0 0.0
2017-Aug-14 07:50N 37°27' E 025°20'0 0.0
2017-Aug-14 07:30N 37°27' E 025°20'0 0.0
2017-Aug-12 08:14N 37°27' E 025°19'0 0.3
2017-Aug-12 07:39N 37°27' E 025°19'1 3.9
2017-Aug-12 07:30N 37°26' E 025°19'0 0.1
2017-Aug-12 06:59N 37°26' E 025°19'1 2.3
2017-Aug-12 06:26N 37°27' E 025°18'3 7.4
2017-Aug-12 06:00N 37°24' E 025°18'2 3.1
2017-Aug-12 05:26N 37°24' E 025°20'0 0.1
2017-Aug-12 04:59N 37°24' E 025°20'0 0.1
2017-Aug-12 04:29N 37°24' E 025°20'0 0.1
2017-Aug-12 03:53N 37°24' E 025°20'0 0.0
2017-Aug-12 03:29N 37°24' E 025°20'0 0.1
2017-Aug-12 02:59N 37°24' E 025°20'0 0.1
2017-Aug-12 02:26N 37°24' E 025°20'0 0.0
2017-Aug-12 01:59N 37°24' E 025°20'0 0.0
2017-Aug-12 01:29N 37°24' E 025°20'0 0.0
2017-Aug-12 00:56N 37°24' E 025°20'0 0.0
2017-Aug-12 00:26N 37°24' E 025°20'0 0.0
2017-Aug-11 23:59N 37°24' E 025°20'0 0.0
2017-Aug-11 23:29N 37°24' E 025°20'0 0.0
2017-Aug-11 22:59N 37°24' E 025°20'0 0.1
2017-Aug-11 22:29N 37°24' E 025°20'0 0.0
2017-Aug-11 21:53N 37°24' E 025°20'0 0.1
2017-Aug-11 21:26N 37°24' E 025°20'0 0.0
2017-Aug-11 20:53N 37°24' E 025°20'0 0.0
2017-Aug-11 20:29N 37°24' E 025°20'0 0.0
2017-Aug-11 19:53N 37°24' E 025°20'0 0.0
2017-Aug-11 19:20N 37°24' E 025°20'0 0.1
2017-Aug-11 18:59N 37°24' E 025°20'0 0.0
2017-Aug-11 18:29N 37°24' E 025°20'0 0.0
2017-Aug-11 17:58N 37°24' E 025°20'0 0.1
2017-Aug-11 17:30N 37°24' E 025°20'0 0.1
2017-Aug-11 16:58N 37°24' E 025°20'0 0.0
2017-Aug-11 16:22N 37°24' E 025°20'1 2.0
2017-Aug-11 15:51N 37°25' E 025°20'0 0.0
2017-Aug-11 15:30N 37°25' E 025°20'0 0.0
2017-Aug-11 14:54N 37°25' E 025°20'1 0.6
2017-Aug-11 13:16N 37°24' E 025°20'0 0.1
2017-Aug-11 13:00N 37°24' E 025°20'1 2.1
2017-Aug-11 12:29N 37°25' E 025°19'1 1.9
2017-Aug-11 11:55N 37°24' E 025°20'1 2.5
2017-Aug-11 11:30N 37°25' E 025°19'1 1.9
2017-Aug-11 10:57N 37°24' E 025°20'0 0.0
2017-Aug-11 09:16N 37°24' E 025°20'0 0.0
2017-Aug-11 09:00N 37°24' E 025°20'1 1.5
2017-Aug-11 08:18N 37°25' E 025°19'1 2.1
2017-Aug-11 07:49N 37°24' E 025°20'0 0.0
2017-Aug-11 07:26N 37°24' E 025°20'0 0.0
2017-Aug-11 07:01N 37°24' E 025°20'1 1.3
2017-Aug-11 06:28N 37°25' E 025°19'1 1.5
2017-Aug-11 06:00N 37°24' E 025°20'0 0.0
2017-Aug-11 05:29N 37°24' E 025°20'0 0.0
2017-Aug-11 04:51N 37°24' E 025°20'0 0.1
2017-Aug-11 04:30N 37°24' E 025°20'0 0.0
2017-Aug-11 04:00N 37°24' E 025°20'0 0.0
2017-Aug-11 03:20N 37°24' E 025°20'0 0.1
2017-Aug-11 02:58N 37°24' E 025°20'0 0.1
2017-Aug-11 02:30N 37°24' E 025°20'0 0.1
2017-Aug-11 02:00N 37°24' E 025°20'0 0.0
2017-Aug-11 01:29N 37°24' E 025°20'0 0.0
2017-Aug-11 01:00N 37°24' E 025°20'0 0.1
2017-Aug-11 00:30N 37°24' E 025°20'0 0.1
2017-Aug-11 00:00N 37°24' E 025°20'0 0.1
2017-Aug-10 23:30N 37°24' E 025°20'0 0.0
2017-Aug-10 23:00N 37°24' E 025°20'0 0.0
2017-Aug-10 22:30N 37°24' E 025°20'0 0.0
2017-Aug-10 22:00N 37°24' E 025°20'0 0.2
2017-Aug-10 21:30N 37°24' E 025°20'0 0.2
2017-Aug-10 21:00N 37°24' E 025°20'0 0.0
2017-Aug-10 17:51N 37°24' E 025°20'0 0.1
2017-Aug-10 17:30N 37°24' E 025°20'0 0.5
2017-Aug-10 17:00N 37°25' E 025°20'0 0.3
2017-Aug-10 16:04N 37°24' E 025°20'0 0.6
2017-Aug-10 16:00N 37°24' E 025°20'0 1.0
2017-Aug-10 15:30N 37°25' E 025°20'0 0.3
2017-Aug-10 13:54N 37°24' E 025°20'0 0.4
2017-Aug-10 13:30N 37°24' E 025°20'0 0.3
2017-Aug-10 13:00N 37°24' E 025°20'0 0.7
2017-Aug-10 12:30N 37°24' E 025°20'1 2.2
2017-Aug-10 12:00N 37°24' E 025°22'1 2.5
2017-Aug-10 11:30N 37°25' E 025°23'0 0.0
2017-Aug-10 08:23N 37°25' E 025°23'3 6.4
2017-Aug-10 07:57N 37°25' E 025°19'1 2.5
2017-Aug-10 07:30N 37°24' E 025°20'3 5.2
2017-Aug-10 07:00N 37°25' E 025°23'0 0.0
2017-Aug-10 02:47N 37°25' E 025°23'2 6.3
2017-Aug-10 02:30N 37°24' E 025°21'1 2.6
2017-Aug-10 01:58N 37°25' E 025°23'1 0.2
2017-Aug-09 23:03N 37°25' E 025°23'3 5.6
2017-Aug-09 22:36N 37°24' E 025°20'110.8
2017-Aug-09 22:30N 37°25' E 025°19'3 1.4
2017-Aug-09 20:24N 37°25' E 025°23'0 0.0
2017-Aug-09 20:00N 37°25' E 025°23'3 5.7
2017-Aug-09 19:29N 37°25' E 025°19'3 5.9
2017-Aug-09 18:59N 37°25' E 025°23'3 5.9
2017-Aug-09 18:29N 37°25' E 025°19'3 5.7
2017-Aug-09 18:00N 37°25' E 025°23'0 0.5
2017-Aug-09 17:26N 37°25' E 025°23'2 5.6
2017-Aug-09 17:00N 37°24' E 025°20'2 4.7
2017-Aug-09 16:29N 37°25' E 025°23'0 0.0
2017-Aug-09 15:46N 37°25' E 025°23'23 4.4
2017-Aug-09 10:36N 37°20' E 025°51'  
Track history (hours):
 
Tides and Currents Weather Stations Pressure Air Temp Water Temp Dewpoint Dewpoint Depression Visibility Wind Speed Wind Dir Waves Ship Positions

Maya

Owner: COCOBAY PROPERTIES LTD, FORT LAUDERDALE, FL. More information available from US FCC via Universal Licensing System and Coast Guard Vessel Documentation Center.

Last reported at 2017-Aug-16 23:08 UTC. Time now 2017-Sep-20 23:55 UTC.
Position N 37°25' E 025°19'.
Warning: this ship's position is 35 days out of date.

Length 10 m.

Type: Pleasure craft. MMSI: 367790970.

Date/timePositionNaut miles runAvg speedWind from/ knotsBaromVisibWave heightAir tempDewpointWater temp
2017-Aug-16 23:08N 37°25' E 025°19'0 1.5
2017-Aug-16 22:59N 37°25' E 025°19'0 0.0
2017-Aug-16 18:19N 37°25' E 025°19'0 1.1
2017-Aug-16 18:00N 37°25' E 025°19'0 0.1
2017-Aug-16 17:29N 37°25' E 025°19'0 0.1
2017-Aug-16 16:59N 37°25' E 025°19'0 0.0
2017-Aug-16 15:09N 37°25' E 025°19'0 0.0
2017-Aug-16 12:21N 37°25' E 025°19'0 0.0
2017-Aug-16 11:33N 37°25' E 025°19'1 6.5
2017-Aug-16 11:28N 37°25' E 025°19'1 0.2
2017-Aug-16 08:55N 37°25' E 025°19'0 0.0
2017-Aug-16 08:30N 37°25' E 025°19'0 0.0
2017-Aug-16 07:50N 37°25' E 025°19'0 0.5
2017-Aug-16 07:30N 37°25' E 025°19'0 0.3
2017-Aug-16 06:59N 37°24' E 025°19'0 0.1
2017-Aug-16 06:30N 37°25' E 025°19'0 0.5
2017-Aug-16 06:00N 37°24' E 025°19'0 0.0
2017-Aug-15 20:22N 37°25' E 025°20'3 2.6
2017-Aug-15 19:21N 37°27' E 025°19'1 0.5
2017-Aug-15 18:12N 37°27' E 025°20'0 0.1
2017-Aug-15 17:06N 37°27' E 025°19'110.6
2017-Aug-15 17:00N 37°27' E 025°18'5 9.3
2017-Aug-15 16:30N 37°22' E 025°17'1 1.1
2017-Aug-15 15:19N 37°23' E 025°16'1 1.6
2017-Aug-15 15:00N 37°24' E 025°16'1 0.8
2017-Aug-15 14:23N 37°23' E 025°16'0 0.0
2017-Aug-15 12:06N 37°23' E 025°16'1 1.9
2017-Aug-15 11:49N 37°24' E 025°16'1 1.4
2017-Aug-15 11:26N 37°23' E 025°16'0 0.1
2017-Aug-15 11:00N 37°23' E 025°16'5 0.2
2017-Aug-14 08:40N 37°27' E 025°20'0 0.0
2017-Aug-14 08:28N 37°27' E 025°20'0 0.0
2017-Aug-14 07:50N 37°27' E 025°20'0 0.0
2017-Aug-14 07:30N 37°27' E 025°20'0 0.0
2017-Aug-12 08:14N 37°27' E 025°19'0 0.3
2017-Aug-12 07:39N 37°27' E 025°19'1 3.9
2017-Aug-12 07:30N 37°26' E 025°19'0 0.1
2017-Aug-12 06:59N 37°26' E 025°19'1 2.3
2017-Aug-12 06:26N 37°27' E 025°18'3 7.4
2017-Aug-12 06:00N 37°24' E 025°18'2 3.1
2017-Aug-12 05:26N 37°24' E 025°20'0 0.1
2017-Aug-12 04:59N 37°24' E 025°20'0 0.1
2017-Aug-12 04:29N 37°24' E 025°20'0 0.1
2017-Aug-12 03:53N 37°24' E 025°20'0 0.0
2017-Aug-12 03:29N 37°24' E 025°20'0 0.1
2017-Aug-12 02:59N 37°24' E 025°20'0 0.1
2017-Aug-12 02:26N 37°24' E 025°20'0 0.0
2017-Aug-12 01:59N 37°24' E 025°20'0 0.0
2017-Aug-12 01:29N 37°24' E 025°20'0 0.0
2017-Aug-12 00:56N 37°24' E 025°20'0 0.0
2017-Aug-12 00:26N 37°24' E 025°20'0 0.0
2017-Aug-11 23:59N 37°24' E 025°20'0 0.0
2017-Aug-11 23:29N 37°24' E 025°20'0 0.0
2017-Aug-11 22:59N 37°24' E 025°20'0 0.1
2017-Aug-11 22:29N 37°24' E 025°20'0 0.0
2017-Aug-11 21:53N 37°24' E 025°20'0 0.1
2017-Aug-11 21:26N 37°24' E 025°20'0 0.0
2017-Aug-11 20:53N 37°24' E 025°20'0 0.0
2017-Aug-11 20:29N 37°24' E 025°20'0 0.0
2017-Aug-11 19:53N 37°24' E 025°20'0 0.0
2017-Aug-11 19:20N 37°24' E 025°20'0 0.1
2017-Aug-11 18:59N 37°24' E 025°20'0 0.0
2017-Aug-11 18:29N 37°24' E 025°20'0 0.0
2017-Aug-11 17:58N 37°24' E 025°20'0 0.1
2017-Aug-11 17:30N 37°24' E 025°20'0 0.1
2017-Aug-11 16:58N 37°24' E 025°20'0 0.0
2017-Aug-11 16:22N 37°24' E 025°20'1 2.0
2017-Aug-11 15:51N 37°25' E 025°20'0 0.0
2017-Aug-11 15:30N 37°25' E 025°20'0 0.0
2017-Aug-11 14:54N 37°25' E 025°20'1 0.6
2017-Aug-11 13:16N 37°24' E 025°20'0 0.1
2017-Aug-11 13:00N 37°24' E 025°20'1 2.1
2017-Aug-11 12:29N 37°25' E 025°19'1 1.9
2017-Aug-11 11:55N 37°24' E 025°20'1 2.5
2017-Aug-11 11:30N 37°25' E 025°19'1 1.9
2017-Aug-11 10:57N 37°24' E 025°20'0 0.0
2017-Aug-11 09:16N 37°24' E 025°20'0 0.0
2017-Aug-11 09:00N 37°24' E 025°20'1 1.5
2017-Aug-11 08:18N 37°25' E 025°19'1 2.1
2017-Aug-11 07:49N 37°24' E 025°20'0 0.0
2017-Aug-11 07:26N 37°24' E 025°20'0 0.0
2017-Aug-11 07:01N 37°24' E 025°20'1 1.3
2017-Aug-11 06:28N 37°25' E 025°19'1 1.5
2017-Aug-11 06:00N 37°24' E 025°20'0 0.0
2017-Aug-11 05:29N 37°24' E 025°20'0 0.0
2017-Aug-11 04:51N 37°24' E 025°20'0 0.1
2017-Aug-11 04:30N 37°24' E 025°20'0 0.0
2017-Aug-11 04:00N 37°24' E 025°20'0 0.0
2017-Aug-11 03:20N 37°24' E 025°20'0 0.1
2017-Aug-11 02:58N 37°24' E 025°20'0 0.1
2017-Aug-11 02:30N 37°24' E 025°20'0 0.1
2017-Aug-11 02:00N 37°24' E 025°20'0 0.0
2017-Aug-11 01:29N 37°24' E 025°20'0 0.0
2017-Aug-11 01:00N 37°24' E 025°20'0 0.1
2017-Aug-11 00:30N 37°24' E 025°20'0 0.1
2017-Aug-11 00:00N 37°24' E 025°20'0 0.1
2017-Aug-10 23:30N 37°24' E 025°20'0 0.0
2017-Aug-10 23:00N 37°24' E 025°20'0 0.0
2017-Aug-10 22:30N 37°24' E 025°20'0 0.0
2017-Aug-10 22:00N 37°24' E 025°20'0 0.2
2017-Aug-10 21:30N 37°24' E 025°20'0 0.2
2017-Aug-10 21:00N 37°24' E 025°20'0 0.0
2017-Aug-10 17:51N 37°24' E 025°20'0 0.1
2017-Aug-10 17:30N 37°24' E 025°20'0 0.5
2017-Aug-10 17:00N 37°25' E 025°20'0 0.3
2017-Aug-10 16:04N 37°24' E 025°20'0 0.6
2017-Aug-10 16:00N 37°24' E 025°20'0 1.0
2017-Aug-10 15:30N 37°25' E 025°20'0 0.3
2017-Aug-10 13:54N 37°24' E 025°20'0 0.4
2017-Aug-10 13:30N 37°24' E 025°20'0 0.3
2017-Aug-10 13:00N 37°24' E 025°20'0 0.7
2017-Aug-10 12:30N 37°24' E 025°20'1 2.2
2017-Aug-10 12:00N 37°24' E 025°22'1 2.5
2017-Aug-10 11:30N 37°25' E 025°23'0 0.0
2017-Aug-10 08:23N 37°25' E 025°23'3 6.4
2017-Aug-10 07:57N 37°25' E 025°19'1 2.5
2017-Aug-10 07:30N 37°24' E 025°20'3 5.2
2017-Aug-10 07:00N 37°25' E 025°23'0 0.0
2017-Aug-10 02:47N 37°25' E 025°23'2 6.3
2017-Aug-10 02:30N 37°24' E 025°21'1 2.6
2017-Aug-10 01:58N 37°25' E 025°23'1 0.2
2017-Aug-09 23:03N 37°25' E 025°23'3 5.6
2017-Aug-09 22:36N 37°24' E 025°20'110.8
2017-Aug-09 22:30N 37°25' E 025°19'3 1.4
2017-Aug-09 20:24N 37°25' E 025°23'0 0.0
2017-Aug-09 20:00N 37°25' E 025°23'3 5.7
2017-Aug-09 19:29N 37°25' E 025°19'3 5.9
2017-Aug-09 18:59N 37°25' E 025°23'3 5.9
2017-Aug-09 18:29N 37°25' E 025°19'3 5.7
2017-Aug-09 18:00N 37°25' E 025°23'0 0.5
2017-Aug-09 17:26N 37°25' E 025°23'2 5.6
2017-Aug-09 17:00N 37°24' E 025°20'2 4.7
2017-Aug-09 16:29N 37°25' E 025°23'0 0.0
2017-Aug-09 15:46N 37°25' E 025°23'23 4.4
2017-Aug-09 10:36N 37°20' E 025°51'  

Dump ship's entire track history